SBPL/PNZ METAR and TAF weather

Enter ICAO airport designator
Station Type Date Time Source
SBPL METAR 2021/03/01 23:00 UTC NOAA

SBPL 012300Z 18004KT CAVOK 28/19 Q1008


Station Type Date Time Source
SBPL Decoded METAR 2021/03/01 23:00 UTC NOAA

Petrolina , Brazil (SBPL) 09-21S 040-33W
Mar 01, 2021 - 06:00 PM EST / 2021.03.01 2300 UTC
Wind: from the S (180 degrees) at 5 MPH (4 KT):0
Visibility: greater than 7 mile(s):0
Temperature: 82 F (28 C)
Dew Point: 66 F (19 C)
Relative Humidity: 58%
Pressure (altimeter): 29.77 in. Hg (1008 hPa)
ob: SBPL 012300Z 18004KT CAVOK 28/19 Q1008
cycle: 23

Station Type Date Time Source
SBPL TAF 2021/03/01 18:40 UTC NOAA

TAF SBPL 011520Z 0118/0218 17013KT 9999 SCT025 TX33/0118Z TN24/0209Z
BECMG 0120/0122 06007KT SCT040
BECMG 0123/0201 14007KT BKN030
BECMG 0204/0206 8000 BKN020
BECMG 0209/0211 BKN015 PROB40 0211/0213 4000 SHRA BKN012
BECMG 0213/0216 17010KT 9999 SCT020
RMK PHN

Example: see airport list